sensor_id;sensor_type;location;lat;lon;timestamp;P1;durP1;ratioP1;P2;durP2;ratioP2
1693;SDS011;844;47.058;15.472;2023-01-28T00:01:25;23.60;;;18.97;;
1693;SDS011;844;47.058;15.472;2023-01-28T00:03:58;27.60;;;18.07;;
1693;SDS011;844;47.058;15.472;2023-01-28T00:06:27;25.77;;;18.87;;
1693;SDS011;844;47.058;15.472;2023-01-28T00:08:58;24.80;;;17.47;;
1693;SDS011;844;47.058;15.472;2023-01-28T00:11:28;25.13;;;18.33;;
1693;SDS011;844;47.058;15.472;2023-01-28T00:14:00;23.03;;;18.00;;
1693;SDS011;844;47.058;15.472;2023-01-28T00:16:31;24.67;;;19.87;;
1693;SDS011;844;47.058;15.472;2023-01-28T00:19:03;25.83;;;18.77;;
1693;SDS011;844;47.058;15.472;2023-01-28T00:21:33;27.77;;;19.53;;
1693;SDS011;844;47.058;15.472;2023-01-28T00:24:04;30.53;;;19.80;;
1693;SDS011;844;47.058;15.472;2023-01-28T00:26:36;24.80;;;19.00;;
1693;SDS011;844;47.058;15.472;2023-01-28T00:31:41;23.87;;;19.23;;
1693;SDS011;844;47.058;15.472;2023-01-28T00:34:13;26.17;;;17.47;;
1693;SDS011;844;47.058;15.472;2023-01-28T00:36:43;26.77;;;19.10;;
1693;SDS011;844;47.058;15.472;2023-01-28T00:39:24;28.47;;;19.70;;
1693;SDS011;844;47.058;15.472;2023-01-28T00:41:55;26.10;;;18.77;;
1693;SDS011;844;47.058;15.472;2023-01-28T00:44:25;24.60;;;18.10;;
1693;SDS011;844;47.058;15.472;2023-01-28T00:46:55;25.90;;;19.20;;
1693;SDS011;844;47.058;15.472;2023-01-28T00:49:27;25.67;;;20.10;;
1693;SDS011;844;47.058;15.472;2023-01-28T00:51:57;20.60;;;17.93;;
1693;SDS011;844;47.058;15.472;2023-01-28T00:54:27;25.03;;;19.60;;
1693;SDS011;844;47.058;15.472;2023-01-28T00:56:58;23.57;;;20.03;;
1693;SDS011;844;47.058;15.472;2023-01-28T00:59:29;23.50;;;18.10;;
1693;SDS011;844;47.058;15.472;2023-01-28T01:02:00;24.50;;;18.27;;
1693;SDS011;844;47.058;15.472;2023-01-28T01:04:41;28.40;;;20.03;;
1693;SDS011;844;47.058;15.472;2023-01-28T01:07:21;25.20;;;18.90;;
1693;SDS011;844;47.058;15.472;2023-01-28T01:09:58;25.23;;;19.00;;
1693;SDS011;844;47.058;15.472;2023-01-28T01:12:29;28.13;;;20.00;;
1693;SDS011;844;47.058;15.472;2023-01-28T01:14:58;23.43;;;18.27;;
1693;SDS011;844;47.058;15.472;2023-01-28T01:17:30;25.17;;;18.77;;
1693;SDS011;844;47.058;15.472;2023-01-28T01:20:03;29.87;;;20.90;;
1693;SDS011;844;47.058;15.472;2023-01-28T01:22:34;29.87;;;21.93;;
1693;SDS011;844;47.058;15.472;2023-01-28T01:25:06;27.20;;;18.90;;
1693;SDS011;844;47.058;15.472;2023-01-28T01:27:38;29.47;;;19.77;;
1693;SDS011;844;47.058;15.472;2023-01-28T01:30:09;25.23;;;20.03;;
1693;SDS011;844;47.058;15.472;2023-01-28T01:32:42;25.80;;;19.83;;
1693;SDS011;844;47.058;15.472;2023-01-28T01:35:14;30.73;;;19.77;;
1693;SDS011;844;47.058;15.472;2023-01-28T01:37:44;29.30;;;21.10;;
1693;SDS011;844;47.058;15.472;2023-01-28T01:40:15;31.93;;;20.93;;
1693;SDS011;844;47.058;15.472;2023-01-28T01:42:45;26.93;;;19.70;;
1693;SDS011;844;47.058;15.472;2023-01-28T01:45:16;28.27;;;20.77;;
1693;SDS011;844;47.058;15.472;2023-01-28T01:47:56;24.27;;;20.13;;
1693;SDS011;844;47.058;15.472;2023-01-28T01:50:30;24.00;;;19.40;;
1693;SDS011;844;47.058;15.472;2023-01-28T01:53:03;22.77;;;19.00;;
1693;SDS011;844;47.058;15.472;2023-01-28T01:55:37;25.30;;;18.30;;
1693;SDS011;844;47.058;15.472;2023-01-28T01:58:10;27.60;;;20.80;;
1693;SDS011;844;47.058;15.472;2023-01-28T02:00:43;25.43;;;18.30;;
1693;SDS011;844;47.058;15.472;2023-01-28T02:03:13;27.57;;;18.53;;
1693;SDS011;844;47.058;15.472;2023-01-28T02:05:47;27.30;;;20.70;;
1693;SDS011;844;47.058;15.472;2023-01-28T02:08:18;26.50;;;19.90;;
1693;SDS011;844;47.058;15.472;2023-01-28T02:10:49;24.90;;;17.27;;
1693;SDS011;844;47.058;15.472;2023-01-28T02:13:23;28.93;;;19.90;;
1693;SDS011;844;47.058;15.472;2023-01-28T02:15:55;28.43;;;21.27;;
1693;SDS011;844;47.058;15.472;2023-01-28T02:18:27;26.87;;;19.73;;
1693;SDS011;844;47.058;15.472;2023-01-28T02:24:09;30.33;;;19.77;;
1693;SDS011;844;47.058;15.472;2023-01-28T02:27:01;31.57;;;22.40;;
1693;SDS011;844;47.058;15.472;2023-01-28T02:29:55;29.10;;;19.80;;
1693;SDS011;844;47.058;15.472;2023-01-28T02:32:29;27.53;;;19.60;;
1693;SDS011;844;47.058;15.472;2023-01-28T02:35:06;26.90;;;20.53;;
1693;SDS011;844;47.058;15.472;2023-01-28T02:37:43;28.43;;;20.67;;
1693;SDS011;844;47.058;15.472;2023-01-28T02:40:17;29.97;;;22.90;;
1693;SDS011;844;47.058;15.472;2023-01-28T02:42:50;29.17;;;19.40;;
1693;SDS011;844;47.058;15.472;2023-01-28T02:45:23;26.73;;;20.27;;
1693;SDS011;844;47.058;15.472;2023-01-28T02:48:15;25.57;;;19.63;;
1693;SDS011;844;47.058;15.472;2023-01-28T02:50:46;26.33;;;20.30;;
1693;SDS011;844;47.058;15.472;2023-01-28T02:53:22;29.20;;;22.50;;
1693;SDS011;844;47.058;15.472;2023-01-28T02:56:14;28.43;;;18.17;;
1693;SDS011;844;47.058;15.472;2023-01-28T02:58:49;31.37;;;19.23;;
1693;SDS011;844;47.058;15.472;2023-01-28T03:01:27;27.80;;;19.33;;
1693;SDS011;844;47.058;15.472;2023-01-28T03:04:03;25.50;;;21.27;;
1693;SDS011;844;47.058;15.472;2023-01-28T03:06:38;26.37;;;19.23;;
1693;SDS011;844;47.058;15.472;2023-01-28T03:09:19;27.10;;;19.90;;
1693;SDS011;844;47.058;15.472;2023-01-28T03:11:54;30.33;;;21.00;;
1693;SDS011;844;47.058;15.472;2023-01-28T03:14:44;29.10;;;21.00;;
1693;SDS011;844;47.058;15.472;2023-01-28T03:17:38;28.60;;;19.27;;
1693;SDS011;844;47.058;15.472;2023-01-28T03:20:30;29.30;;;19.47;;
1693;SDS011;844;47.058;15.472;2023-01-28T03:23:21;29.07;;;20.60;;
1693;SDS011;844;47.058;15.472;2023-01-28T03:26:12;25.37;;;19.67;;
1693;SDS011;844;47.058;15.472;2023-01-28T03:29:03;30.03;;;21.47;;
1693;SDS011;844;47.058;15.472;2023-01-28T03:31:53;28.43;;;19.90;;
1693;SDS011;844;47.058;15.472;2023-01-28T03:34:45;31.20;;;20.77;;
1693;SDS011;844;47.058;15.472;2023-01-28T03:37:33;29.93;;;20.97;;
1693;SDS011;844;47.058;15.472;2023-01-28T03:40:16;35.57;;;21.00;;
1693;SDS011;844;47.058;15.472;2023-01-28T03:42:48;25.27;;;19.10;;
1693;SDS011;844;47.058;15.472;2023-01-28T03:45:20;24.87;;;20.67;;
1693;SDS011;844;47.058;15.472;2023-01-28T03:47:50;27.07;;;19.57;;
1693;SDS011;844;47.058;15.472;2023-01-28T03:50:23;26.73;;;21.33;;
1693;SDS011;844;47.058;15.472;2023-01-28T03:52:54;28.37;;;20.40;;
1693;SDS011;844;47.058;15.472;2023-01-28T03:55:42;30.93;;;19.80;;
1693;SDS011;844;47.058;15.472;2023-01-28T03:58:13;22.57;;;18.03;;
1693;SDS011;844;47.058;15.472;2023-01-28T04:00:44;28.23;;;19.93;;
1693;SDS011;844;47.058;15.472;2023-01-28T04:03:15;26.00;;;19.77;;
1693;SDS011;844;47.058;15.472;2023-01-28T04:05:56;24.30;;;19.13;;
1693;SDS011;844;47.058;15.472;2023-01-28T04:08:27;28.10;;;18.10;;
1693;SDS011;844;47.058;15.472;2023-01-28T04:10:58;24.93;;;19.27;;
1693;SDS011;844;47.058;15.472;2023-01-28T04:13:41;24.93;;;19.17;;
1693;SDS011;844;47.058;15.472;2023-01-28T04:16:13;25.83;;;19.73;;
1693;SDS011;844;47.058;15.472;2023-01-28T04:18:45;33.30;;;21.80;;
1693;SDS011;844;47.058;15.472;2023-01-28T04:21:17;30.07;;;20.27;;
1693;SDS011;844;47.058;15.472;2023-01-28T04:23:47;27.03;;;19.00;;
1693;SDS011;844;47.058;15.472;2023-01-28T04:26:17;25.07;;;16.57;;
1693;SDS011;844;47.058;15.472;2023-01-28T04:28:48;24.80;;;18.80;;
1693;SDS011;844;47.058;15.472;2023-01-28T04:31:19;25.13;;;18.30;;
1693;SDS011;844;47.058;15.472;2023-01-28T04:33:50;27.50;;;21.57;;
1693;SDS011;844;47.058;15.472;2023-01-28T04:36:22;26.03;;;19.00;;
1693;SDS011;844;47.058;15.472;2023-01-28T04:38:52;26.10;;;19.33;;
1693;SDS011;844;47.058;15.472;2023-01-28T04:41:23;27.27;;;19.90;;
1693;SDS011;844;47.058;15.472;2023-01-28T04:43:54;28.73;;;21.60;;
1693;SDS011;844;47.058;15.472;2023-01-28T04:46:24;31.50;;;21.27;;
1693;SDS011;844;47.058;15.472;2023-01-28T04:48:54;27.27;;;18.63;;
1693;SDS011;844;47.058;15.472;2023-01-28T04:51:29;31.00;;;20.80;;
1693;SDS011;844;47.058;15.472;2023-01-28T04:53:59;27.67;;;19.97;;
1693;SDS011;844;47.058;15.472;2023-01-28T04:56:30;27.07;;;20.07;;
1693;SDS011;844;47.058;15.472;2023-01-28T04:59:00;27.13;;;19.70;;
1693;SDS011;844;47.058;15.472;2023-01-28T05:01:31;25.23;;;19.23;;
1693;SDS011;844;47.058;15.472;2023-01-28T05:04:01;25.20;;;20.07;;
1693;SDS011;844;47.058;15.472;2023-01-28T05:06:34;30.07;;;19.97;;
1693;SDS011;844;47.058;15.472;2023-01-28T05:09:05;29.07;;;20.80;;
1693;SDS011;844;47.058;15.472;2023-01-28T05:11:35;26.00;;;20.83;;
1693;SDS011;844;47.058;15.472;2023-01-28T05:14:06;28.03;;;19.70;;
1693;SDS011;844;47.058;15.472;2023-01-28T05:16:37;29.87;;;19.40;;
1693;SDS011;844;47.058;15.472;2023-01-28T05:19:07;31.63;;;18.90;;
1693;SDS011;844;47.058;15.472;2023-01-28T05:21:39;26.70;;;20.17;;
1693;SDS011;844;47.058;15.472;2023-01-28T05:24:10;28.80;;;20.43;;
1693;SDS011;844;47.058;15.472;2023-01-28T05:26:40;24.77;;;19.30;;
1693;SDS011;844;47.058;15.472;2023-01-28T05:29:11;27.70;;;20.70;;
1693;SDS011;844;47.058;15.472;2023-01-28T05:31:41;26.20;;;18.33;;
1693;SDS011;844;47.058;15.472;2023-01-28T05:34:12;30.80;;;19.10;;
1693;SDS011;844;47.058;15.472;2023-01-28T05:36:44;30.13;;;20.53;;
1693;SDS011;844;47.058;15.472;2023-01-28T05:39:15;30.77;;;20.60;;
1693;SDS011;844;47.058;15.472;2023-01-28T05:41:45;25.03;;;19.70;;
1693;SDS011;844;47.058;15.472;2023-01-28T05:44:15;32.50;;;22.10;;
1693;SDS011;844;47.058;15.472;2023-01-28T05:46:45;27.37;;;20.73;;
1693;SDS011;844;47.058;15.472;2023-01-28T05:49:15;30.10;;;20.47;;
1693;SDS011;844;47.058;15.472;2023-01-28T05:51:47;29.57;;;20.40;;
1693;SDS011;844;47.058;15.472;2023-01-28T05:54:17;27.80;;;19.33;;
1693;SDS011;844;47.058;15.472;2023-01-28T05:56:48;28.43;;;18.20;;
1693;SDS011;844;47.058;15.472;2023-01-28T05:59:19;33.27;;;21.73;;
1693;SDS011;844;47.058;15.472;2023-01-28T06:01:49;26.33;;;20.77;;
1693;SDS011;844;47.058;15.472;2023-01-28T06:04:19;28.73;;;20.70;;
1693;SDS011;844;47.058;15.472;2023-01-28T06:06:51;27.50;;;22.10;;
1693;SDS011;844;47.058;15.472;2023-01-28T06:09:21;26.70;;;20.23;;
1693;SDS011;844;47.058;15.472;2023-01-28T06:11:51;26.60;;;21.63;;
1693;SDS011;844;47.058;15.472;2023-01-28T06:14:22;36.40;;;21.77;;
1693;SDS011;844;47.058;15.472;2023-01-28T06:16:52;27.67;;;21.33;;
1693;SDS011;844;47.058;15.472;2023-01-28T06:19:23;27.73;;;19.87;;
1693;SDS011;844;47.058;15.472;2023-01-28T06:21:55;26.63;;;19.77;;
1693;SDS011;844;47.058;15.472;2023-01-28T06:24:25;27.77;;;20.53;;
1693;SDS011;844;47.058;15.472;2023-01-28T06:26:55;28.83;;;19.87;;
1693;SDS011;844;47.058;15.472;2023-01-28T06:29:26;26.80;;;19.80;;
1693;SDS011;844;47.058;15.472;2023-01-28T06:31:56;30.30;;;21.57;;
1693;SDS011;844;47.058;15.472;2023-01-28T06:34:26;36.00;;;21.73;;
1693;SDS011;844;47.058;15.472;2023-01-28T06:36:58;29.70;;;19.60;;
1693;SDS011;844;47.058;15.472;2023-01-28T06:39:28;29.90;;;20.80;;
1693;SDS011;844;47.058;15.472;2023-01-28T06:41:59;28.20;;;20.73;;
1693;SDS011;844;47.058;15.472;2023-01-28T06:44:30;25.73;;;18.93;;
1693;SDS011;844;47.058;15.472;2023-01-28T06:47:01;26.63;;;20.87;;
1693;SDS011;844;47.058;15.472;2023-01-28T06:49:32;27.87;;;20.10;;
1693;SDS011;844;47.058;15.472;2023-01-28T06:52:05;29.73;;;22.20;;
1693;SDS011;844;47.058;15.472;2023-01-28T06:54:35;30.50;;;20.77;;
1693;SDS011;844;47.058;15.472;2023-01-28T06:57:06;28.50;;;19.53;;
1693;SDS011;844;47.058;15.472;2023-01-28T06:59:37;25.90;;;19.73;;
1693;SDS011;844;47.058;15.472;2023-01-28T07:02:08;33.30;;;22.47;;
1693;SDS011;844;47.058;15.472;2023-01-28T07:04:39;23.30;;;19.67;;
1693;SDS011;844;47.058;15.472;2023-01-28T07:07:11;28.90;;;20.70;;
1693;SDS011;844;47.058;15.472;2023-01-28T07:09:40;27.97;;;20.67;;
1693;SDS011;844;47.058;15.472;2023-01-28T07:12:11;32.53;;;22.10;;
1693;SDS011;844;47.058;15.472;2023-01-28T07:14:41;30.17;;;23.33;;
1693;SDS011;844;47.058;15.472;2023-01-28T07:17:12;28.30;;;19.60;;
1693;SDS011;844;47.058;15.472;2023-01-28T07:19:43;34.20;;;21.03;;
1693;SDS011;844;47.058;15.472;2023-01-28T07:22:15;27.63;;;21.30;;
1693;SDS011;844;47.058;15.472;2023-01-28T07:24:45;37.43;;;23.13;;
1693;SDS011;844;47.058;15.472;2023-01-28T07:27:16;27.47;;;24.07;;
1693;SDS011;844;47.058;15.472;2023-01-28T07:29:46;28.77;;;23.07;;
1693;SDS011;844;47.058;15.472;2023-01-28T07:32:17;27.53;;;20.30;;
1693;SDS011;844;47.058;15.472;2023-01-28T07:34:48;29.53;;;21.37;;
1693;SDS011;844;47.058;15.472;2023-01-28T07:37:20;27.97;;;20.80;;
1693;SDS011;844;47.058;15.472;2023-01-28T07:39:50;27.80;;;21.30;;
1693;SDS011;844;47.058;15.472;2023-01-28T07:42:21;30.97;;;22.87;;
1693;SDS011;844;47.058;15.472;2023-01-28T07:44:51;26.63;;;20.00;;
1693;SDS011;844;47.058;15.472;2023-01-28T07:47:22;25.30;;;20.43;;
1693;SDS011;844;47.058;15.472;2023-01-28T07:49:52;25.37;;;19.00;;
1693;SDS011;844;47.058;15.472;2023-01-28T07:52:24;29.43;;;20.20;;
1693;SDS011;844;47.058;15.472;2023-01-28T07:54:53;30.23;;;20.50;;
1693;SDS011;844;47.058;15.472;2023-01-28T07:57:24;24.60;;;18.80;;
1693;SDS011;844;47.058;15.472;2023-01-28T07:59:56;28.40;;;21.60;;
1693;SDS011;844;47.058;15.472;2023-01-28T08:02:27;27.40;;;21.17;;
1693;SDS011;844;47.058;15.472;2023-01-28T08:04:57;32.40;;;21.77;;
1693;SDS011;844;47.058;15.472;2023-01-28T08:07:29;29.90;;;22.30;;
1693;SDS011;844;47.058;15.472;2023-01-28T08:10:00;28.93;;;20.20;;
1693;SDS011;844;47.058;15.472;2023-01-28T08:12:30;29.80;;;22.53;;
1693;SDS011;844;47.058;15.472;2023-01-28T08:15:00;24.30;;;18.30;;
1693;SDS011;844;47.058;15.472;2023-01-28T08:17:32;29.80;;;20.40;;
1693;SDS011;844;47.058;15.472;2023-01-28T08:20:02;27.70;;;20.33;;
1693;SDS011;844;47.058;15.472;2023-01-28T08:22:34;30.27;;;20.20;;
1693;SDS011;844;47.058;15.472;2023-01-28T08:25:05;26.47;;;20.57;;
1693;SDS011;844;47.058;15.472;2023-01-28T08:27:36;28.13;;;20.10;;
1693;SDS011;844;47.058;15.472;2023-01-28T08:30:07;24.30;;;18.00;;
1693;SDS011;844;47.058;15.472;2023-01-28T08:32:41;29.70;;;19.97;;
1693;SDS011;844;47.058;15.472;2023-01-28T08:35:12;28.77;;;22.33;;
1693;SDS011;844;47.058;15.472;2023-01-28T08:37:44;24.10;;;17.93;;
1693;SDS011;844;47.058;15.472;2023-01-28T08:40:14;29.33;;;20.43;;
1693;SDS011;844;47.058;15.472;2023-01-28T08:42:45;28.27;;;20.27;;
1693;SDS011;844;47.058;15.472;2023-01-28T08:45:16;26.60;;;19.47;;
1693;SDS011;844;47.058;15.472;2023-01-28T08:47:48;30.70;;;22.30;;
1693;SDS011;844;47.058;15.472;2023-01-28T08:50:19;33.83;;;22.60;;
1693;SDS011;844;47.058;15.472;2023-01-28T08:52:55;23.10;;;19.33;;
1693;SDS011;844;47.058;15.472;2023-01-28T08:55:26;25.50;;;20.93;;
1693;SDS011;844;47.058;15.472;2023-01-28T08:57:56;31.67;;;23.63;;
1693;SDS011;844;47.058;15.472;2023-01-28T09:00:30;33.30;;;21.33;;
1693;SDS011;844;47.058;15.472;2023-01-28T09:03:01;37.10;;;23.30;;
1693;SDS011;844;47.058;15.472;2023-01-28T09:05:32;31.20;;;23.70;;
1693;SDS011;844;47.058;15.472;2023-01-28T09:08:06;24.67;;;19.47;;
1693;SDS011;844;47.058;15.472;2023-01-28T09:10:37;29.70;;;21.80;;
1693;SDS011;844;47.058;15.472;2023-01-28T09:13:09;25.50;;;20.60;;
1693;SDS011;844;47.058;15.472;2023-01-28T09:15:41;28.33;;;20.53;;
1693;SDS011;844;47.058;15.472;2023-01-28T09:18:12;25.17;;;20.53;;
1693;SDS011;844;47.058;15.472;2023-01-28T09:20:42;29.70;;;21.33;;
1693;SDS011;844;47.058;15.472;2023-01-28T09:23:14;32.57;;;22.67;;
1693;SDS011;844;47.058;15.472;2023-01-28T09:25:45;27.30;;;21.30;;
1693;SDS011;844;47.058;15.472;2023-01-28T09:28:15;26.90;;;20.60;;
1693;SDS011;844;47.058;15.472;2023-01-28T09:30:46;29.77;;;21.17;;
1693;SDS011;844;47.058;15.472;2023-01-28T09:33:16;29.57;;;22.10;;
1693;SDS011;844;47.058;15.472;2023-01-28T09:35:46;35.57;;;21.87;;
1693;SDS011;844;47.058;15.472;2023-01-28T09:38:18;27.33;;;19.87;;
1693;SDS011;844;47.058;15.472;2023-01-28T09:40:49;25.97;;;19.97;;
1693;SDS011;844;47.058;15.472;2023-01-28T09:46:18;29.13;;;21.93;;
1693;SDS011;844;47.058;15.472;2023-01-28T09:48:48;28.50;;;21.83;;
1693;SDS011;844;47.058;15.472;2023-01-28T09:51:23;29.87;;;21.80;;
1693;SDS011;844;47.058;15.472;2023-01-28T09:54:02;31.53;;;22.07;;
1693;SDS011;844;47.058;15.472;2023-01-28T09:56:35;29.60;;;22.87;;
1693;SDS011;844;47.058;15.472;2023-01-28T09:59:13;33.67;;;22.77;;
1693;SDS011;844;47.058;15.472;2023-01-28T10:01:52;30.00;;;23.00;;
1693;SDS011;844;47.058;15.472;2023-01-28T10:04:32;37.80;;;24.63;;
1693;SDS011;844;47.058;15.472;2023-01-28T10:07:18;30.80;;;23.33;;
1693;SDS011;844;47.058;15.472;2023-01-28T10:09:56;30.60;;;21.90;;
1693;SDS011;844;47.058;15.472;2023-01-28T10:12:37;34.43;;;22.30;;
1693;SDS011;844;47.058;15.472;2023-01-28T10:15:28;28.07;;;21.77;;
1693;SDS011;844;47.058;15.472;2023-01-28T10:18:34;31.90;;;23.23;;
1693;SDS011;844;47.058;15.472;2023-01-28T10:21:07;28.77;;;22.17;;
1693;SDS011;844;47.058;15.472;2023-01-28T10:23:44;34.77;;;23.97;;
1693;SDS011;844;47.058;15.472;2023-01-28T10:26:23;29.50;;;22.90;;
1693;SDS011;844;47.058;15.472;2023-01-28T10:28:56;38.70;;;22.87;;
1693;SDS011;844;47.058;15.472;2023-01-28T10:31:29;35.20;;;24.50;;
1693;SDS011;844;47.058;15.472;2023-01-28T10:34:03;35.80;;;25.53;;
1693;SDS011;844;47.058;15.472;2023-01-28T10:36:33;33.53;;;25.53;;
1693;SDS011;844;47.058;15.472;2023-01-28T10:39:03;37.13;;;22.80;;
1693;SDS011;844;47.058;15.472;2023-01-28T10:41:37;31.83;;;23.43;;
1693;SDS011;844;47.058;15.472;2023-01-28T10:44:26;30.43;;;25.03;;
1693;SDS011;844;47.058;15.472;2023-01-28T10:47:01;28.67;;;23.17;;
1693;SDS011;844;47.058;15.472;2023-01-28T10:49:33;32.07;;;22.30;;
1693;SDS011;844;47.058;15.472;2023-01-28T10:52:10;36.00;;;27.03;;
1693;SDS011;844;47.058;15.472;2023-01-28T10:54:41;30.30;;;24.90;;
1693;SDS011;844;47.058;15.472;2023-01-28T10:57:14;33.00;;;25.80;;
1693;SDS011;844;47.058;15.472;2023-01-28T10:59:45;31.90;;;24.57;;
1693;SDS011;844;47.058;15.472;2023-01-28T11:02:25;30.67;;;22.50;;
1693;SDS011;844;47.058;15.472;2023-01-28T11:05:14;30.07;;;22.60;;
1693;SDS011;844;47.058;15.472;2023-01-28T11:07:47;34.47;;;23.67;;
1693;SDS011;844;47.058;15.472;2023-01-28T11:10:23;33.00;;;25.00;;
1693;SDS011;844;47.058;15.472;2023-01-28T11:12:57;31.30;;;24.17;;
1693;SDS011;844;47.058;15.472;2023-01-28T11:15:29;34.80;;;24.03;;
1693;SDS011;844;47.058;15.472;2023-01-28T11:18:00;29.00;;;21.70;;
1693;SDS011;844;47.058;15.472;2023-01-28T11:20:34;30.67;;;22.83;;
1693;SDS011;844;47.058;15.472;2023-01-28T11:23:14;34.20;;;23.50;;
1693;SDS011;844;47.058;15.472;2023-01-28T11:25:47;28.80;;;23.03;;
1693;SDS011;844;47.058;15.472;2023-01-28T11:28:19;31.67;;;21.50;;
1693;SDS011;844;47.058;15.472;2023-01-28T11:30:51;32.90;;;22.13;;
1693;SDS011;844;47.058;15.472;2023-01-28T11:33:25;27.00;;;20.57;;
1693;SDS011;844;47.058;15.472;2023-01-28T11:36:03;25.03;;;20.50;;
1693;SDS011;844;47.058;15.472;2023-01-28T11:38:45;25.57;;;19.67;;
1693;SDS011;844;47.058;15.472;2023-01-28T11:41:17;30.67;;;20.87;;
1693;SDS011;844;47.058;15.472;2023-01-28T11:43:49;28.50;;;20.50;;
1693;SDS011;844;47.058;15.472;2023-01-28T11:46:38;29.73;;;21.37;;
1693;SDS011;844;47.058;15.472;2023-01-28T11:49:30;30.93;;;22.77;;
1693;SDS011;844;47.058;15.472;2023-01-28T11:52:11;31.00;;;21.60;;
1693;SDS011;844;47.058;15.472;2023-01-28T11:54:50;36.10;;;22.70;;
1693;SDS011;844;47.058;15.472;2023-01-28T11:57:30;29.90;;;22.63;;
1693;SDS011;844;47.058;15.472;2023-01-28T12:00:13;28.63;;;20.63;;
1693;SDS011;844;47.058;15.472;2023-01-28T12:03:02;41.07;;;23.73;;
1693;SDS011;844;47.058;15.472;2023-01-28T12:05:44;31.63;;;21.63;;
1693;SDS011;844;47.058;15.472;2023-01-28T12:08:19;36.03;;;24.13;;
1693;SDS011;844;47.058;15.472;2023-01-28T12:10:54;36.03;;;24.10;;
1693;SDS011;844;47.058;15.472;2023-01-28T12:13:38;30.93;;;21.03;;
1693;SDS011;844;47.058;15.472;2023-01-28T12:16:24;25.80;;;21.50;;
1693;SDS011;844;47.058;15.472;2023-01-28T12:19:24;28.47;;;22.30;;
1693;SDS011;844;47.058;15.472;2023-01-28T12:22:27;33.03;;;22.97;;
1693;SDS011;844;47.058;15.472;2023-01-28T12:25:09;30.07;;;21.20;;
1693;SDS011;844;47.058;15.472;2023-01-28T12:27:50;31.83;;;21.60;;
1693;SDS011;844;47.058;15.472;2023-01-28T12:30:30;27.33;;;21.10;;
1693;SDS011;844;47.058;15.472;2023-01-28T12:33:23;32.80;;;22.73;;
1693;SDS011;844;47.058;15.472;2023-01-28T12:36:05;29.57;;;21.77;;
1693;SDS011;844;47.058;15.472;2023-01-28T12:38:47;28.67;;;21.10;;
1693;SDS011;844;47.058;15.472;2023-01-28T12:41:21;34.37;;;24.50;;
1693;SDS011;844;47.058;15.472;2023-01-28T12:43:54;33.13;;;25.17;;
1693;SDS011;844;47.058;15.472;2023-01-28T12:46:30;32.63;;;22.30;;
1693;SDS011;844;47.058;15.472;2023-01-28T12:49:11;34.60;;;24.80;;
1693;SDS011;844;47.058;15.472;2023-01-28T12:51:51;29.93;;;22.87;;
1693;SDS011;844;47.058;15.472;2023-01-28T12:54:28;29.13;;;21.87;;
1693;SDS011;844;47.058;15.472;2023-01-28T12:57:02;36.47;;;25.03;;
1693;SDS011;844;47.058;15.472;2023-01-28T12:59:35;32.83;;;22.13;;
1693;SDS011;844;47.058;15.472;2023-01-28T13:02:21;32.27;;;23.20;;
1693;SDS011;844;47.058;15.472;2023-01-28T13:04:58;29.07;;;21.73;;
1693;SDS011;844;47.058;15.472;2023-01-28T13:07:33;29.53;;;22.97;;
1693;SDS011;844;47.058;15.472;2023-01-28T13:10:10;34.40;;;23.40;;
1693;SDS011;844;47.058;15.472;2023-01-28T13:12:45;31.63;;;23.20;;
1693;SDS011;844;47.058;15.472;2023-01-28T13:15:17;29.13;;;19.87;;
1693;SDS011;844;47.058;15.472;2023-01-28T13:17:55;31.60;;;21.00;;
1693;SDS011;844;47.058;15.472;2023-01-28T13:20:29;30.87;;;19.93;;
1693;SDS011;844;47.058;15.472;2023-01-28T13:23:05;31.90;;;23.10;;
1693;SDS011;844;47.058;15.472;2023-01-28T13:25:50;29.60;;;23.57;;
1693;SDS011;844;47.058;15.472;2023-01-28T13:28:26;31.70;;;22.87;;
1693;SDS011;844;47.058;15.472;2023-01-28T13:31:01;31.90;;;22.33;;
1693;SDS011;844;47.058;15.472;2023-01-28T13:33:34;28.27;;;19.93;;
1693;SDS011;844;47.058;15.472;2023-01-28T13:36:21;26.17;;;20.87;;
1693;SDS011;844;47.058;15.472;2023-01-28T13:39:00;29.53;;;21.50;;
1693;SDS011;844;47.058;15.472;2023-01-28T13:41:36;31.27;;;24.80;;
1693;SDS011;844;47.058;15.472;2023-01-28T13:44:19;31.00;;;22.47;;
1693;SDS011;844;47.058;15.472;2023-01-28T13:46:56;27.37;;;21.67;;
1693;SDS011;844;47.058;15.472;2023-01-28T13:49:41;31.20;;;22.80;;
1693;SDS011;844;47.058;15.472;2023-01-28T13:52:25;26.43;;;22.50;;
1693;SDS011;844;47.058;15.472;2023-01-28T13:54:59;27.60;;;22.10;;
1693;SDS011;844;47.058;15.472;2023-01-28T13:57:44;30.97;;;22.37;;
1693;SDS011;844;47.058;15.472;2023-01-28T14:00:35;28.20;;;21.70;;
1693;SDS011;844;47.058;15.472;2023-01-28T14:09:27;31.33;;;22.40;;
1693;SDS011;844;47.058;15.472;2023-01-28T14:12:20;28.80;;;23.17;;
1693;SDS011;844;47.058;15.472;2023-01-28T14:18:14;29.43;;;21.70;;
1693;SDS011;844;47.058;15.472;2023-01-28T14:20:51;35.23;;;23.70;;
1693;SDS011;844;47.058;15.472;2023-01-28T14:23:22;26.80;;;22.37;;
1693;SDS011;844;47.058;15.472;2023-01-28T14:26:00;31.10;;;22.30;;
1693;SDS011;844;47.058;15.472;2023-01-28T14:28:41;30.80;;;23.90;;
1693;SDS011;844;47.058;15.472;2023-01-28T14:31:17;27.73;;;19.40;;
1693;SDS011;844;47.058;15.472;2023-01-28T14:33:52;31.93;;;23.07;;
1693;SDS011;844;47.058;15.472;2023-01-28T14:36:23;31.23;;;22.10;;
1693;SDS011;844;47.058;15.472;2023-01-28T14:38:54;31.90;;;24.40;;
1693;SDS011;844;47.058;15.472;2023-01-28T14:41:28;33.40;;;23.30;;
1693;SDS011;844;47.058;15.472;2023-01-28T14:44:00;33.73;;;22.70;;
1693;SDS011;844;47.058;15.472;2023-01-28T14:46:33;29.50;;;23.30;;
1693;SDS011;844;47.058;15.472;2023-01-28T14:49:12;27.20;;;21.23;;
1693;SDS011;844;47.058;15.472;2023-01-28T14:52:03;31.07;;;22.67;;
1693;SDS011;844;47.058;15.472;2023-01-28T14:54:47;33.33;;;24.90;;
1693;SDS011;844;47.058;15.472;2023-01-28T14:57:40;32.40;;;22.70;;
1693;SDS011;844;47.058;15.472;2023-01-28T15:00:18;29.87;;;22.30;;
1693;SDS011;844;47.058;15.472;2023-01-28T15:02:50;32.80;;;22.20;;
1693;SDS011;844;47.058;15.472;2023-01-28T15:05:22;31.07;;;23.83;;
1693;SDS011;844;47.058;15.472;2023-01-28T15:07:53;28.70;;;22.93;;
1693;SDS011;844;47.058;15.472;2023-01-28T15:10:24;27.13;;;21.53;;
1693;SDS011;844;47.058;15.472;2023-01-28T15:13:02;30.90;;;22.50;;
1693;SDS011;844;47.058;15.472;2023-01-28T15:15:34;31.73;;;23.00;;
1693;SDS011;844;47.058;15.472;2023-01-28T15:18:09;28.23;;;21.37;;
1693;SDS011;844;47.058;15.472;2023-01-28T15:20:44;26.13;;;21.47;;
1693;SDS011;844;47.058;15.472;2023-01-28T15:23:17;26.80;;;20.90;;
1693;SDS011;844;47.058;15.472;2023-01-28T15:25:49;33.67;;;22.23;;
1693;SDS011;844;47.058;15.472;2023-01-28T15:28:23;33.00;;;24.33;;
1693;SDS011;844;47.058;15.472;2023-01-28T15:30:56;28.63;;;20.30;;
1693;SDS011;844;47.058;15.472;2023-01-28T15:33:27;28.40;;;22.20;;
1693;SDS011;844;47.058;15.472;2023-01-28T15:35:57;26.00;;;21.20;;
1693;SDS011;844;47.058;15.472;2023-01-28T15:38:29;31.67;;;22.70;;
1693;SDS011;844;47.058;15.472;2023-01-28T15:41:00;32.23;;;22.67;;
1693;SDS011;844;47.058;15.472;2023-01-28T15:43:33;29.40;;;23.07;;
1693;SDS011;844;47.058;15.472;2023-01-28T15:46:08;30.00;;;24.47;;
1693;SDS011;844;47.058;15.472;2023-01-28T15:48:40;31.87;;;22.73;;
1693;SDS011;844;47.058;15.472;2023-01-28T15:51:17;37.47;;;25.10;;